createdAt,value
2023-03-17T00:01:22.382Z,3.97
2023-03-17T00:03:51.833Z,3.83
2023-03-17T00:06:24.628Z,4.00
2023-03-17T00:08:53.127Z,3.80
2023-03-17T00:11:22.254Z,3.50
2023-03-17T00:13:51.188Z,3.40
2023-03-17T00:16:20.752Z,3.83
2023-03-17T00:18:51.133Z,3.77
2023-03-17T00:21:23.310Z,3.43
2023-03-17T00:23:52.802Z,3.70
2023-03-17T00:26:21.284Z,3.30
2023-03-17T00:28:51.107Z,3.87
2023-03-17T00:31:21.112Z,3.23
2023-03-17T00:33:52.211Z,3.57
2023-03-17T00:36:22.621Z,3.20
2023-03-17T00:38:52.642Z,3.03
2023-03-17T00:41:21.299Z,3.50
2023-03-17T00:43:49.774Z,3.20
2023-03-17T00:46:19.818Z,3.00
2023-03-17T00:48:48.628Z,3.30
2023-03-17T00:51:18.428Z,3.50
2023-03-17T00:53:46.930Z,3.17
2023-03-17T00:56:16.153Z,3.17
2023-03-17T00:58:44.762Z,3.50
2023-03-17T01:01:13.577Z,3.20
2023-03-17T01:03:42.010Z,3.20
2023-03-17T01:06:11.987Z,3.60
2023-03-17T01:08:42.524Z,3.23
2023-03-17T01:11:16.140Z,3.20
2023-03-17T01:13:44.838Z,3.07
2023-03-17T01:16:13.546Z,3.30
2023-03-17T01:18:41.999Z,3.17
2023-03-17T01:21:10.596Z,3.60
2023-03-17T01:23:39.054Z,3.67
2023-03-17T01:26:08.910Z,3.77
2023-03-17T01:28:37.982Z,3.20
2023-03-17T01:31:06.578Z,3.47
2023-03-17T01:33:35.178Z,3.50
2023-03-17T01:36:03.687Z,3.63
2023-03-17T01:38:32.583Z,3.77
2023-03-17T01:41:03.400Z,3.83
2023-03-17T01:43:33.296Z,4.40
2023-03-17T01:46:20.788Z,4.80
2023-03-17T01:48:53.017Z,4.40
2023-03-17T01:51:24.707Z,4.67
2023-03-17T01:53:53.983Z,5.33
2023-03-17T01:56:23.236Z,5.17
2023-03-17T01:58:54.604Z,5.30
2023-03-17T02:01:25.256Z,5.27
2023-03-17T02:03:54.637Z,5.50
2023-03-17T02:06:23.184Z,5.67
2023-03-17T02:08:52.134Z,6.43
2023-03-17T02:11:21.075Z,6.20
2023-03-17T02:13:49.505Z,5.90
2023-03-17T02:16:19.694Z,6.60
2023-03-17T02:18:48.125Z,7.00
2023-03-17T02:21:35.286Z,6.20
2023-03-17T02:24:07.458Z,7.40
2023-03-17T02:26:37.108Z,6.97
2023-03-17T02:29:06.592Z,6.60
2023-03-17T02:31:35.997Z,7.40
2023-03-17T02:34:04.836Z,7.40
2023-03-17T02:36:33.264Z,6.83
2023-03-17T02:39:02.525Z,7.27
2023-03-17T02:41:32.345Z,7.47
2023-03-17T02:44:00.735Z,7.87
2023-03-17T02:46:29.233Z,8.00
2023-03-17T02:48:57.837Z,7.43
2023-03-17T02:51:26.199Z,8.00
2023-03-17T02:53:54.588Z,7.43
2023-03-17T02:56:23.026Z,7.47
2023-03-17T02:58:52.806Z,7.70
2023-03-17T03:01:21.320Z,7.50
2023-03-17T03:03:50.070Z,8.00
2023-03-17T03:06:18.755Z,7.53
2023-03-17T03:08:47.144Z,7.23
2023-03-17T03:11:15.554Z,7.90
2023-03-17T03:13:43.936Z,8.00
2023-03-17T03:16:13.792Z,8.60
2023-03-17T03:18:42.285Z,9.63
2023-03-17T03:21:10.814Z,9.00
2023-03-17T03:23:39.193Z,9.30
2023-03-17T03:26:07.789Z,8.33
2023-03-17T03:28:36.483Z,8.20
2023-03-17T03:31:05.247Z,8.07
2023-03-17T03:33:35.494Z,7.67
2023-03-17T03:36:04.128Z,8.27
2023-03-17T03:38:32.785Z,7.67
2023-03-17T03:41:01.550Z,6.87
2023-03-17T03:43:29.975Z,7.90
2023-03-17T03:45:58.366Z,7.27
2023-03-17T03:48:26.776Z,8.00
2023-03-17T03:50:59.131Z,7.70
2023-03-17T03:53:27.849Z,7.20
2023-03-17T03:55:56.446Z,7.23
2023-03-17T03:58:24.982Z,7.80
2023-03-17T04:00:53.387Z,7.20
2023-03-17T04:03:21.779Z,7.53
2023-03-17T04:05:50.324Z,7.30
2023-03-17T04:08:20.139Z,7.23
2023-03-17T04:10:48.696Z,7.60
2023-03-17T04:13:17.106Z,7.03
2023-03-17T04:15:45.629Z,7.50
2023-03-17T04:18:14.008Z,7.30
2023-03-17T04:20:42.443Z,8.53
2023-03-17T04:23:11.262Z,7.93
2023-03-17T04:25:41.044Z,8.57
2023-03-17T04:28:10.358Z,8.37
2023-03-17T04:30:38.821Z,8.80
2023-03-17T04:33:07.289Z,8.17
2023-03-17T04:35:35.839Z,8.13
2023-03-17T04:38:04.308Z,8.33
2023-03-17T04:40:33.023Z,8.37
2023-03-17T04:43:03.615Z,8.90
2023-03-17T04:45:32.658Z,8.57
2023-03-17T04:48:01.040Z,9.00
2023-03-17T04:50:29.743Z,9.40
2023-03-17T04:52:58.302Z,8.53
2023-03-17T04:55:27.559Z,8.47
2023-03-17T04:57:56.045Z,8.77
2023-03-17T05:00:25.992Z,9.23
2023-03-17T05:02:54.768Z,8.37
2023-03-17T05:05:23.142Z,8.93
2023-03-17T05:07:51.622Z,9.00
2023-03-17T05:10:20.120Z,8.83
2023-03-17T05:12:48.529Z,9.17
2023-03-17T05:15:17.065Z,9.00
2023-03-17T05:17:46.845Z,9.87
2023-03-17T05:20:15.667Z,9.30
2023-03-17T05:22:44.112Z,9.53
2023-03-17T05:25:12.503Z,9.07
2023-03-17T05:27:41.552Z,9.10
2023-03-17T05:30:10.701Z,9.03
2023-03-17T05:32:39.191Z,9.07
2023-03-17T05:35:09.596Z,8.87
2023-03-17T05:37:38.069Z,9.47
2023-03-17T05:40:08.303Z,8.97
2023-03-17T05:42:36.708Z,9.40
2023-03-17T05:45:05.775Z,8.90
2023-03-17T05:47:34.510Z,9.20
2023-03-17T05:50:03.107Z,8.90
2023-03-17T05:52:33.114Z,9.37
2023-03-17T05:55:01.515Z,9.47
2023-03-17T05:57:30.215Z,9.60
2023-03-17T05:59:58.741Z,9.43
2023-03-17T06:02:27.228Z,9.97
2023-03-17T06:04:55.837Z,10.50
2023-03-17T06:07:24.273Z,11.47
2023-03-17T06:09:54.068Z,12.13
2023-03-17T06:12:22.474Z,12.57
2023-03-17T06:14:50.946Z,13.03
2023-03-17T06:17:19.504Z,12.50
2023-03-17T06:19:49.478Z,13.30
2023-03-17T06:22:18.016Z,12.53
2023-03-17T06:24:46.378Z,12.87
2023-03-17T06:27:16.252Z,12.80
2023-03-17T06:29:44.683Z,13.20
2023-03-17T06:32:20.470Z,13.73
2023-03-17T06:34:49.354Z,13.60
2023-03-17T06:37:17.744Z,13.93
2023-03-17T06:39:46.343Z,14.37
2023-03-17T06:42:16.517Z,15.47
2023-03-17T06:44:44.986Z,15.27
2023-03-17T06:47:13.518Z,17.07
2023-03-17T06:49:42.096Z,15.97
2023-03-17T06:52:10.652Z,15.43
2023-03-17T06:54:39.071Z,15.03
2023-03-17T06:57:08.262Z,15.83
2023-03-17T06:59:38.181Z,15.47
2023-03-17T07:02:06.723Z,16.87
2023-03-17T07:04:37.604Z,16.33
2023-03-17T07:07:06.303Z,16.93
2023-03-17T07:09:35.472Z,15.90
2023-03-17T07:12:05.083Z,16.13
2023-03-17T07:14:35.610Z,15.93
2023-03-17T07:17:06.207Z,15.97
2023-03-17T07:19:35.113Z,15.57
2023-03-17T07:22:03.539Z,15.27
2023-03-17T07:24:31.969Z,14.63
2023-03-17T07:27:00.443Z,14.23
2023-03-17T07:29:29.341Z,14.10
2023-03-17T07:31:57.882Z,12.20
2023-03-17T07:34:28.257Z,8.63
2023-03-17T07:36:56.739Z,5.60
2023-03-17T07:39:25.191Z,5.53
2023-03-17T07:41:55.337Z,6.40
2023-03-17T07:44:24.011Z,8.53
2023-03-17T07:46:52.664Z,11.67
2023-03-17T07:49:38.188Z,12.40
2023-03-17T07:52:10.405Z,13.07
2023-03-17T07:54:42.216Z,13.40
2023-03-17T07:57:11.572Z,12.60
2023-03-17T07:59:41.636Z,13.43
2023-03-17T08:02:13.367Z,12.43
2023-03-17T08:04:41.942Z,12.27
2023-03-17T08:07:12.819Z,13.07
2023-03-17T08:09:41.821Z,9.57
2023-03-17T08:12:10.598Z,9.63
2023-03-17T08:14:38.995Z,11.10
2023-03-17T08:17:07.762Z,11.93
2023-03-17T08:19:36.209Z,11.07
2023-03-17T08:22:04.649Z,11.07
2023-03-17T08:24:34.502Z,10.00
2023-03-17T08:27:03.000Z,10.23
2023-03-17T08:29:31.412Z,8.93
2023-03-17T08:31:59.798Z,8.97
2023-03-17T08:34:28.296Z,7.37
2023-03-17T08:36:56.678Z,7.87
2023-03-17T08:39:25.610Z,8.53
2023-03-17T08:41:55.712Z,8.33
2023-03-17T08:44:24.309Z,8.30
2023-03-17T08:46:52.992Z,8.80
2023-03-17T08:49:21.662Z,8.20
2023-03-17T08:51:50.132Z,10.37
2023-03-17T08:54:18.669Z,9.33
2023-03-17T08:56:47.077Z,8.57
2023-03-17T08:59:17.110Z,8.23
2023-03-17T09:01:46.049Z,8.40
2023-03-17T09:04:15.417Z,7.83
2023-03-17T09:07:01.333Z,11.73
2023-03-17T09:09:32.156Z,11.37
2023-03-17T09:12:00.594Z,10.07
2023-03-17T09:14:37.330Z,9.37
2023-03-17T09:17:11.264Z,8.80
2023-03-17T09:19:40.477Z,11.43
2023-03-17T09:22:09.029Z,17.30
2023-03-17T09:24:37.528Z,13.90
2023-03-17T09:27:06.225Z,10.00
2023-03-17T09:29:36.198Z,9.27
2023-03-17T09:32:04.597Z,8.17
2023-03-17T09:34:33.104Z,19.30
2023-03-17T09:37:01.501Z,17.73
2023-03-17T09:39:29.914Z,13.00
2023-03-17T09:42:19.686Z,10.23
2023-03-17T09:44:58.906Z,9.30
2023-03-17T09:47:36.621Z,18.93
2023-03-17T09:50:06.327Z,19.70
2023-03-17T09:52:36.318Z,13.47
2023-03-17T09:55:05.284Z,10.57
2023-03-17T09:57:35.637Z,8.63
2023-03-17T10:00:07.835Z,14.83
2023-03-17T10:02:38.242Z,20.97
2023-03-17T10:05:12.581Z,14.40
2023-03-17T10:07:43.954Z,10.07
2023-03-17T10:10:16.741Z,7.90
2023-03-17T10:12:48.047Z,18.10
2023-03-17T10:15:20.064Z,25.07
2023-03-17T10:17:48.569Z,16.73
2023-03-17T10:20:19.348Z,11.00
2023-03-17T10:22:49.127Z,7.70
2023-03-17T10:25:19.307Z,14.47
2023-03-17T10:27:51.099Z,21.00
2023-03-17T10:30:23.456Z,14.43
2023-03-17T10:32:52.925Z,10.17
2023-03-17T10:35:23.010Z,18.40
2023-03-17T10:37:58.914Z,22.57
2023-03-17T10:40:33.621Z,16.77
2023-03-17T10:43:03.831Z,11.33
2023-03-17T10:45:34.577Z,7.73
2023-03-17T10:48:04.365Z,17.07
2023-03-17T10:50:34.354Z,19.03
2023-03-17T10:53:07.954Z,12.27
2023-03-17T10:55:42.596Z,8.73
2023-03-17T10:58:17.008Z,19.00
2023-03-17T11:00:56.784Z,19.03
2023-03-17T11:03:26.588Z,13.33
2023-03-17T11:05:58.506Z,14.20
2023-03-17T11:08:27.369Z,21.47
2023-03-17T11:10:57.732Z,17.80
2023-03-17T11:13:31.266Z,11.73
2023-03-17T11:16:07.367Z,20.83
2023-03-17T11:18:37.856Z,21.17
2023-03-17T11:21:08.799Z,13.77
2023-03-17T11:23:49.011Z,18.00
2023-03-17T11:26:27.914Z,21.87
2023-03-17T11:29:00.173Z,16.03
2023-03-17T11:31:31.131Z,15.93
2023-03-17T11:34:05.326Z,21.83
2023-03-17T11:36:39.256Z,16.90
2023-03-17T11:39:12.696Z,11.57
2023-03-17T11:41:46.034Z,21.70
2023-03-17T11:44:21.148Z,20.90
2023-03-17T11:46:54.010Z,13.40
2023-03-17T11:49:24.274Z,21.00
2023-03-17T11:51:59.249Z,23.13
2023-03-17T11:54:32.602Z,15.13
2023-03-17T11:57:02.973Z,15.03
2023-03-17T11:59:36.205Z,18.57
2023-03-17T12:02:08.686Z,15.83
2023-03-17T12:04:39.249Z,16.93
2023-03-17T12:07:15.407Z,25.90
2023-03-17T12:09:45.910Z,20.97
2023-03-17T12:12:17.043Z,13.67
2023-03-17T12:14:48.762Z,22.60
2023-03-17T12:17:21.591Z,20.70
2023-03-17T12:19:58.409Z,15.33
2023-03-17T12:22:30.629Z,19.17
2023-03-17T12:25:05.843Z,22.63
2023-03-17T12:27:35.960Z,17.53
2023-03-17T12:30:08.161Z,20.00
2023-03-17T12:32:41.927Z,21.00
2023-03-17T12:35:20.546Z,18.40
2023-03-17T12:37:51.576Z,26.83
2023-03-17T12:40:21.981Z,37.30
2023-03-17T12:42:53.682Z,40.20
2023-03-17T12:45:31.438Z,39.17
2023-03-17T12:48:12.608Z,39.50
2023-03-17T12:50:51.785Z,29.83
2023-03-17T12:53:26.639Z,19.00
2023-03-17T12:55:56.833Z,27.53
2023-03-17T12:58:29.998Z,31.60
2023-03-17T13:01:01.961Z,26.97
2023-03-17T13:03:33.491Z,29.07
2023-03-17T13:06:03.495Z,22.07
2023-03-17T13:08:33.511Z,21.80
2023-03-17T13:11:18.648Z,34.97
2023-03-17T13:13:49.728Z,32.70
2023-03-17T13:16:28.509Z,21.83
2023-03-17T13:19:14.700Z,33.33
2023-03-17T13:21:46.471Z,33.20
2023-03-17T13:24:22.507Z,20.83
2023-03-17T13:27:01.728Z,31.60
2023-03-17T13:29:44.397Z,29.20
2023-03-17T13:32:31.609Z,22.43
2023-03-17T13:35:16.804Z,28.00
2023-03-17T13:37:53.511Z,20.87
2023-03-17T13:40:23.194Z,25.93
2023-03-17T13:43:09.955Z,27.20
2023-03-17T13:45:39.962Z,21.53
2023-03-17T13:48:28.467Z,29.70
2023-03-17T13:51:02.164Z,27.77
2023-03-17T13:53:31.741Z,22.83
2023-03-17T13:56:11.935Z,32.10
2023-03-17T13:58:52.827Z,28.73
2023-03-17T14:01:21.736Z,20.23
2023-03-17T14:03:51.616Z,23.60
2023-03-17T14:06:23.183Z,28.97
2023-03-17T14:08:53.804Z,20.40
2023-03-17T14:11:25.980Z,19.93
2023-03-17T14:13:57.509Z,30.53
2023-03-17T14:16:28.542Z,28.23
2023-03-17T14:19:00.237Z,18.03
2023-03-17T14:21:33.776Z,22.13
2023-03-17T14:24:02.786Z,24.60
2023-03-17T14:26:32.250Z,17.67
2023-03-17T14:29:01.212Z,19.67
2023-03-17T14:31:30.489Z,28.97
2023-03-17T14:33:59.861Z,24.73
2023-03-17T14:36:29.048Z,15.57
2023-03-17T14:38:59.081Z,22.23
2023-03-17T14:41:28.299Z,24.30
2023-03-17T14:43:59.455Z,20.23
2023-03-17T14:46:29.078Z,13.63
2023-03-17T14:48:59.544Z,20.40
2023-03-17T14:51:30.534Z,26.77
2023-03-17T14:54:01.770Z,24.67
2023-03-17T14:56:33.241Z,17.63
2023-03-17T14:59:06.453Z,16.53
2023-03-17T15:01:36.316Z,25.07
2023-03-17T15:04:09.120Z,23.70
2023-03-17T15:06:37.772Z,18.03
2023-03-17T15:09:18.767Z,14.40
2023-03-17T15:11:48.097Z,20.63
2023-03-17T15:14:21.111Z,25.87
2023-03-17T15:16:50.815Z,23.53
2023-03-17T15:19:21.350Z,15.40
2023-03-17T15:21:49.976Z,23.00
2023-03-17T15:24:24.280Z,41.00
2023-03-17T15:26:52.684Z,55.73
2023-03-17T15:29:21.075Z,44.37
2023-03-17T15:31:49.517Z,24.10
2023-03-17T15:34:17.972Z,36.03
2023-03-17T15:36:47.595Z,60.30
2023-03-17T15:39:16.437Z,55.57
2023-03-17T15:41:46.304Z,28.67
2023-03-17T15:44:14.765Z,25.27
2023-03-17T15:46:43.196Z,47.53
2023-03-17T15:49:12.552Z,62.90
2023-03-17T15:51:41.095Z,40.83
2023-03-17T15:54:13.429Z,25.00
2023-03-17T15:56:43.199Z,37.33
2023-03-17T15:59:13.092Z,51.67
2023-03-17T16:01:42.037Z,39.20
2023-03-17T16:04:10.791Z,20.73
2023-03-17T16:06:39.240Z,28.00
2023-03-17T16:09:08.231Z,46.87
2023-03-17T16:11:37.265Z,51.07
2023-03-17T16:14:06.342Z,37.20
2023-03-17T16:16:38.418Z,21.20
2023-03-17T16:19:09.134Z,31.23
2023-03-17T16:21:38.254Z,45.00
2023-03-17T16:24:07.648Z,37.43
2023-03-17T16:26:36.028Z,25.53
2023-03-17T16:29:06.212Z,31.60
2023-03-17T16:31:36.973Z,35.73
2023-03-17T16:34:05.423Z,26.53
2023-03-17T16:36:33.813Z,21.10
2023-03-17T16:39:02.254Z,32.63
2023-03-17T16:41:30.739Z,29.43
2023-03-17T16:44:00.353Z,18.73
2023-03-17T16:46:29.817Z,25.50
2023-03-17T16:48:59.585Z,26.23
2023-03-17T16:51:28.022Z,16.93
2023-03-17T16:53:56.438Z,18.50
2023-03-17T16:56:26.522Z,24.00
2023-03-17T16:58:54.958Z,17.23
2023-03-17T17:01:24.295Z,17.20
2023-03-17T17:03:52.697Z,24.83
2023-03-17T17:06:23.264Z,22.47
2023-03-17T17:08:52.372Z,18.00
2023-03-17T17:11:21.803Z,22.77
2023-03-17T17:13:51.744Z,20.63
2023-03-17T17:16:23.084Z,18.00
2023-03-17T17:18:51.522Z,19.13
2023-03-17T17:21:19.904Z,13.70
2023-03-17T17:23:52.354Z,14.27
2023-03-17T17:26:21.364Z,14.73
2023-03-17T17:28:49.771Z,10.17
2023-03-17T17:31:18.283Z,11.93
2023-03-17T17:33:46.704Z,13.60
2023-03-17T17:36:16.379Z,12.60
2023-03-17T17:38:44.861Z,17.77
2023-03-17T17:41:16.999Z,22.60
2023-03-17T17:43:47.262Z,22.23
2023-03-17T17:46:17.516Z,21.30
2023-03-17T17:48:46.045Z,17.43
2023-03-17T17:51:14.445Z,14.53
2023-03-17T17:53:42.853Z,12.80
2023-03-17T17:56:15.410Z,10.30
2023-03-17T17:58:44.303Z,8.67
2023-03-17T18:01:14.187Z,7.83
2023-03-17T18:03:43.180Z,6.50
2023-03-17T18:06:12.850Z,5.83
2023-03-17T18:08:43.508Z,4.83
2023-03-17T18:11:12.265Z,4.60
2023-03-17T18:13:42.089Z,4.00
2023-03-17T18:16:10.839Z,4.10
2023-03-17T18:18:42.344Z,3.70
2023-03-17T18:21:11.048Z,3.53
2023-03-17T18:23:39.587Z,3.70
2023-03-17T18:26:08.704Z,3.30
2023-03-17T18:28:37.076Z,3.00
2023-03-17T18:31:09.594Z,3.43
2023-03-17T18:33:38.483Z,3.10
2023-03-17T18:36:07.160Z,3.00
2023-03-17T18:38:36.039Z,2.83
2023-03-17T18:41:04.580Z,2.80
2023-03-17T18:43:32.997Z,2.77
2023-03-17T18:46:01.549Z,2.80
2023-03-17T18:48:31.378Z,2.80
2023-03-17T18:50:59.792Z,2.83
2023-03-17T18:53:30.050Z,2.77
2023-03-17T18:55:59.383Z,2.60
2023-03-17T18:58:28.860Z,2.70
2023-03-17T19:00:59.825Z,2.70
2023-03-17T19:03:28.551Z,2.70
2023-03-17T19:05:58.409Z,2.63
2023-03-17T19:08:26.845Z,2.60
2023-03-17T19:10:55.205Z,2.80
2023-03-17T19:13:23.596Z,2.67
2023-03-17T19:15:52.358Z,2.73
2023-03-17T19:18:20.727Z,3.50
2023-03-17T19:20:49.132Z,3.20
2023-03-17T19:23:20.143Z,3.70
2023-03-17T19:25:49.853Z,4.97
2023-03-17T19:28:18.564Z,4.30
2023-03-17T19:30:47.134Z,5.00
2023-03-17T19:33:16.352Z,5.70
2023-03-17T19:35:45.195Z,5.83
2023-03-17T19:38:13.885Z,5.67
2023-03-17T19:40:43.801Z,5.83
2023-03-17T19:43:12.164Z,5.90
2023-03-17T19:45:40.598Z,5.83
2023-03-17T19:48:09.027Z,5.87
2023-03-17T19:50:37.444Z,5.63
2023-03-17T19:53:06.364Z,4.80
2023-03-17T19:55:34.800Z,5.13
2023-03-17T19:58:05.789Z,5.10
2023-03-17T20:00:34.582Z,5.40
2023-03-17T20:03:02.983Z,5.30
2023-03-17T20:05:31.364Z,5.40
2023-03-17T20:07:59.767Z,6.43
2023-03-17T20:10:28.186Z,10.20
2023-03-17T20:12:56.863Z,12.43
2023-03-17T20:15:26.680Z,12.73
2023-03-17T20:17:55.054Z,13.00
2023-03-17T20:20:23.476Z,12.43
2023-03-17T20:22:51.915Z,11.07
2023-03-17T20:25:20.550Z,10.43
2023-03-17T20:27:49.041Z,9.67
2023-03-17T20:30:17.596Z,8.20
2023-03-17T20:32:48.301Z,7.83
2023-03-17T20:35:16.755Z,6.33
2023-03-17T20:37:45.816Z,6.40
2023-03-17T20:40:15.187Z,5.70
2023-03-17T20:42:43.575Z,5.10
2023-03-17T20:45:12.010Z,4.90
2023-03-17T20:47:40.383Z,4.73
2023-03-17T20:50:10.672Z,4.40
2023-03-17T20:52:39.813Z,4.17
2023-03-17T20:55:09.287Z,4.00
2023-03-17T20:57:38.040Z,3.83
2023-03-17T21:00:08.230Z,3.87
2023-03-17T21:02:36.735Z,3.90
2023-03-17T21:05:05.325Z,3.43
2023-03-17T21:07:35.177Z,3.23
2023-03-17T21:10:03.616Z,3.17
2023-03-17T21:12:32.127Z,3.33
2023-03-17T21:15:00.758Z,3.00
2023-03-17T21:17:29.337Z,2.97
2023-03-17T21:19:57.736Z,3.03
2023-03-17T21:22:26.201Z,3.23
2023-03-17T21:24:55.959Z,3.83
2023-03-17T21:27:24.408Z,4.60
2023-03-17T21:29:52.805Z,5.63
2023-03-17T21:32:21.198Z,6.27
2023-03-17T21:34:49.613Z,6.90
2023-03-17T21:37:18.880Z,5.93
2023-03-17T21:39:47.545Z,6.17
2023-03-17T21:42:17.315Z,6.27
2023-03-17T21:44:48.327Z,6.33
2023-03-17T21:47:16.809Z,5.60
2023-03-17T21:49:45.204Z,5.80
2023-03-17T21:52:14.987Z,5.20
2023-03-17T21:54:43.680Z,4.90
2023-03-17T21:57:13.412Z,4.90
2023-03-17T21:59:43.227Z,4.43
2023-03-17T22:02:12.779Z,4.53
2023-03-17T22:04:41.691Z,4.57
2023-03-17T22:07:10.161Z,4.50
2023-03-17T22:09:38.821Z,5.00
2023-03-17T22:12:07.936Z,5.03
2023-03-17T22:14:36.493Z,5.90
2023-03-17T22:17:06.381Z,5.63
2023-03-17T22:19:34.779Z,6.60
2023-03-17T22:22:03.750Z,6.37
2023-03-17T22:24:32.477Z,7.70
2023-03-17T22:27:00.872Z,7.87
2023-03-17T22:29:29.321Z,7.93
2023-03-17T22:31:57.781Z,9.33
2023-03-17T22:34:27.607Z,9.70
2023-03-17T22:36:56.647Z,10.27
2023-03-17T22:39:25.448Z,11.07
2023-03-17T22:41:53.847Z,11.03
2023-03-17T22:44:22.303Z,11.67
2023-03-17T22:46:50.694Z,12.13
2023-03-17T22:49:19.085Z,12.77
2023-03-17T22:51:50.229Z,13.90
2023-03-17T22:54:19.135Z,14.10
2023-03-17T22:56:48.490Z,13.83
2023-03-17T22:59:16.901Z,13.97
2023-03-17T23:01:45.903Z,14.80
2023-03-17T23:04:14.635Z,13.93
2023-03-17T23:06:43.473Z,14.53
2023-03-17T23:09:13.282Z,13.83
2023-03-17T23:11:42.351Z,14.60
2023-03-17T23:14:11.360Z,14.63
2023-03-17T23:16:39.805Z,15.47
2023-03-17T23:19:08.361Z,15.20
2023-03-17T23:21:38.526Z,15.73
2023-03-17T23:24:07.864Z,15.10
2023-03-17T23:26:38.075Z,15.30
2023-03-17T23:29:07.244Z,15.37
2023-03-17T23:31:36.829Z,16.10
2023-03-17T23:34:06.665Z,16.33
2023-03-17T23:36:35.246Z,16.07
2023-03-17T23:39:05.050Z,15.67
2023-03-17T23:41:33.483Z,15.23
2023-03-17T23:44:04.239Z,15.03
2023-03-17T23:46:32.747Z,14.90
2023-03-17T23:49:01.409Z,14.90
2023-03-17T23:51:30.064Z,15.40
2023-03-17T23:53:59.181Z,15.87
2023-03-17T23:56:27.648Z,15.93
2023-03-17T23:58:56.336Z,14.97
